createdAt,value
2023-07-25T00:00:17.928Z,98053.17
2023-07-25T00:01:11.317Z,98047.27
2023-07-25T00:01:44.833Z,98044.71
2023-07-25T00:02:18.117Z,98041.60
2023-07-25T00:02:51.246Z,98035.73
2023-07-25T00:03:24.367Z,98030.92
2023-07-25T00:03:57.518Z,98030.04
2023-07-25T00:04:30.761Z,98025.89
2023-07-25T00:05:07.239Z,98020.29
2023-07-25T00:05:40.535Z,98010.59
2023-07-25T00:06:13.892Z,98009.77
2023-07-25T00:06:47.251Z,98002.27
2023-07-25T00:07:20.492Z,97998.43
2023-07-25T00:07:53.860Z,97996.41
2023-07-25T00:08:26.986Z,97991.92
2023-07-25T00:09:00.215Z,97987.59
2023-07-25T00:09:33.450Z,97982.36
2023-07-25T00:10:07.038Z,97981.19
2023-07-25T00:10:40.257Z,97978.58
2023-07-25T00:11:15.045Z,97974.80
2023-07-25T00:11:48.222Z,97974.23
2023-07-25T00:12:21.439Z,97977.38
2023-07-25T00:12:56.524Z,97974.55
2023-07-25T00:13:29.981Z,97971.84
2023-07-25T00:14:03.299Z,97975.63
2023-07-25T00:14:36.524Z,97978.82
2023-07-25T00:15:10.025Z,97983.63
2023-07-25T00:15:43.371Z,97981.27
2023-07-25T00:16:16.581Z,97978.66
2023-07-25T00:16:50.768Z,97976.80
2023-07-25T00:17:24.102Z,97977.29
2023-07-25T00:17:58.247Z,97969.63
2023-07-25T00:18:31.494Z,97964.34
2023-07-25T00:19:04.632Z,97958.16
2023-07-25T00:19:37.793Z,97955.13
2023-07-25T00:20:11.529Z,97949.74
2023-07-25T00:20:44.744Z,97949.80
2023-07-25T00:21:18.262Z,97949.13
2023-07-25T00:21:51.460Z,97949.35
2023-07-25T00:22:25.038Z,97957.52
2023-07-25T00:22:58.338Z,97961.19
2023-07-25T00:23:31.542Z,97965.15
2023-07-25T00:24:05.544Z,97964.83
2023-07-25T00:24:38.692Z,97962.29
2023-07-25T00:25:11.973Z,97961.50
2023-07-25T00:25:45.233Z,97961.71
2023-07-25T00:26:18.681Z,97962.24
2023-07-25T00:26:51.965Z,97966.56
2023-07-25T00:27:25.222Z,97970.35
2023-07-25T00:27:58.640Z,97969.34
2023-07-25T00:28:31.669Z,97972.31
2023-07-25T00:29:05.847Z,97972.17
2023-07-25T00:29:39.310Z,97971.95
2023-07-25T00:30:12.571Z,97968.91
2023-07-25T00:30:45.765Z,97966.30
2023-07-25T00:31:19.163Z,97967.80
2023-07-25T00:31:52.432Z,97969.71
2023-07-25T00:32:25.589Z,97971.41
2023-07-25T00:32:58.834Z,97968.59
2023-07-25T00:33:32.039Z,97969.30
2023-07-25T00:34:07.797Z,97966.85
2023-07-25T00:34:41.277Z,97967.49
2023-07-25T00:35:14.491Z,97967.30
2023-07-25T00:35:54.680Z,97967.71
2023-07-25T00:36:27.924Z,97967.27
2023-07-25T00:37:01.131Z,97965.14
2023-07-25T00:37:34.462Z,97964.05
2023-07-25T00:38:07.590Z,97966.77
2023-07-25T00:38:40.796Z,97966.14
2023-07-25T00:39:14.210Z,97966.03
2023-07-25T00:39:47.558Z,97964.96
2023-07-25T00:40:20.866Z,97965.34
2023-07-25T00:40:54.032Z,97964.52
2023-07-25T00:41:27.313Z,97964.36
2023-07-25T00:42:00.442Z,97963.30
2023-07-25T00:42:33.802Z,97961.77
2023-07-25T00:43:06.949Z,97961.20
2023-07-25T00:43:40.126Z,97961.40
2023-07-25T00:44:13.349Z,97960.76
2023-07-25T00:44:46.580Z,97959.40
2023-07-25T00:45:20.140Z,97960.95
2023-07-25T00:45:53.411Z,97962.83
2023-07-25T00:46:26.735Z,97960.88
2023-07-25T00:47:00.036Z,97967.37
2023-07-25T00:47:34.344Z,97972.54
2023-07-25T00:48:07.763Z,97969.04
2023-07-25T00:48:41.125Z,97971.38
2023-07-25T00:49:14.420Z,97972.64
2023-07-25T00:49:48.786Z,97966.53
2023-07-25T00:50:22.403Z,97962.63
2023-07-25T00:50:56.116Z,97958.59
2023-07-25T00:51:30.804Z,97956.94
2023-07-25T00:52:04.765Z,97952.19
2023-07-25T00:52:38.446Z,97950.00
2023-07-25T00:53:13.695Z,97951.13
2023-07-25T00:53:47.252Z,97948.94
2023-07-25T00:54:20.409Z,97949.10
2023-07-25T00:54:53.605Z,97949.89
2023-07-25T00:55:29.027Z,97945.42
2023-07-25T00:56:02.792Z,97942.69
2023-07-25T00:56:36.076Z,97942.42
2023-07-25T00:57:09.177Z,97939.98
2023-07-25T00:57:42.367Z,97938.53
2023-07-25T00:58:15.714Z,97940.73
2023-07-25T00:58:48.803Z,97943.86
2023-07-25T00:59:21.946Z,97944.23
2023-07-25T00:59:55.176Z,97943.16
2023-07-25T01:00:28.463Z,97943.95
2023-07-25T01:01:08.424Z,97940.15
2023-07-25T01:01:41.901Z,97944.94
2023-07-25T01:02:16.333Z,97944.23
2023-07-25T01:02:50.162Z,97948.23
2023-07-25T01:03:23.723Z,97947.81
2023-07-25T01:03:57.236Z,97947.87
2023-07-25T01:04:30.572Z,97944.13
2023-07-25T01:05:05.641Z,97944.02
2023-07-25T01:05:42.531Z,97947.39
2023-07-25T01:06:18.573Z,97946.48
2023-07-25T01:06:53.680Z,97947.44
2023-07-25T01:07:27.125Z,97949.36
2023-07-25T01:08:01.120Z,97951.39
2023-07-25T01:08:34.454Z,97952.13
2023-07-25T01:09:07.885Z,97955.27
2023-07-25T01:09:44.103Z,97955.75
2023-07-25T01:10:17.314Z,97960.66
2023-07-25T01:10:50.550Z,97962.42
2023-07-25T01:11:24.773Z,97964.80
2023-07-25T01:11:57.988Z,97963.70
2023-07-25T01:12:31.278Z,97961.07
2023-07-25T01:13:04.329Z,97955.87
2023-07-25T01:13:37.561Z,97956.84
2023-07-25T01:14:10.704Z,97951.56
2023-07-25T01:14:44.618Z,97945.16
2023-07-25T01:15:17.998Z,97947.78
2023-07-25T01:15:53.137Z,97944.42
2023-07-25T01:16:28.922Z,97943.67
2023-07-25T01:17:13.742Z,97937.12
2023-07-25T01:17:46.977Z,97934.77
2023-07-25T01:18:21.301Z,97933.52
2023-07-25T01:18:55.480Z,97934.38
2023-07-25T01:19:31.505Z,97933.70
2023-07-25T01:20:09.548Z,97934.41
2023-07-25T01:20:44.034Z,97934.63
2023-07-25T01:21:17.472Z,97941.40
2023-07-25T01:21:50.800Z,97944.27
2023-07-25T01:22:27.050Z,97950.80
2023-07-25T01:23:02.859Z,97950.10
2023-07-25T01:23:38.384Z,97951.27
2023-07-25T01:24:11.811Z,97957.99
2023-07-25T01:24:48.086Z,97958.26
2023-07-25T01:25:22.411Z,97952.34
2023-07-25T01:25:55.511Z,97953.23
2023-07-25T01:26:28.712Z,97950.30
2023-07-25T01:27:02.556Z,97948.17
2023-07-25T01:27:35.693Z,97942.52
2023-07-25T01:28:08.855Z,97943.42
2023-07-25T01:28:42.100Z,97941.20
2023-07-25T01:29:15.341Z,97941.04
2023-07-25T01:29:48.441Z,97937.84
2023-07-25T01:30:21.727Z,97935.92
2023-07-25T01:30:54.997Z,97936.23
2023-07-25T01:31:28.234Z,97937.26
2023-07-25T01:32:01.503Z,97940.45
2023-07-25T01:32:34.726Z,97941.84
2023-07-25T01:33:07.916Z,97940.55
2023-07-25T01:33:41.411Z,97936.61
2023-07-25T01:34:14.936Z,97933.89
2023-07-25T01:34:48.095Z,97928.63
2023-07-25T01:35:21.804Z,97932.63
2023-07-25T01:35:54.924Z,97929.61
2023-07-25T01:36:28.095Z,97929.30
2023-07-25T01:37:01.286Z,97930.20
2023-07-25T01:37:34.446Z,97931.21
2023-07-25T01:38:07.473Z,97933.55
2023-07-25T01:38:40.642Z,97934.73
2023-07-25T01:39:13.839Z,97933.24
2023-07-25T01:39:47.008Z,97932.02
2023-07-25T01:40:20.172Z,97930.89
2023-07-25T01:40:53.383Z,97936.99
2023-07-25T01:41:26.535Z,97933.35
2023-07-25T01:41:59.695Z,97935.53
2023-07-25T01:42:33.276Z,97937.45
2023-07-25T01:43:07.281Z,97942.41
2023-07-25T01:43:40.440Z,97946.62
2023-07-25T01:44:13.714Z,97946.77
2023-07-25T01:44:46.984Z,97956.02
2023-07-25T01:45:20.340Z,97963.43
2023-07-25T01:45:54.025Z,97964.77
2023-07-25T01:46:27.231Z,97969.40
2023-07-25T01:47:00.426Z,97975.63
2023-07-25T01:47:34.532Z,97982.25
2023-07-25T01:48:07.881Z,97987.26
2023-07-25T01:48:41.030Z,97988.33
2023-07-25T01:49:14.460Z,97990.52
2023-07-25T01:49:47.619Z,97988.14
2023-07-25T01:50:20.873Z,97988.30
2023-07-25T01:50:54.035Z,97988.02
2023-07-25T01:51:28.106Z,97982.64
2023-07-25T01:52:01.645Z,97981.91
2023-07-25T01:52:35.039Z,97983.52
2023-07-25T01:53:08.152Z,97980.05
2023-07-25T01:53:41.525Z,97982.69
2023-07-25T01:54:14.673Z,97982.05
2023-07-25T01:54:50.450Z,97986.37
2023-07-25T01:55:23.854Z,97981.84
2023-07-25T01:55:57.316Z,97983.16
2023-07-25T01:56:30.494Z,97983.16
2023-07-25T01:57:04.546Z,97988.66
2023-07-25T01:57:37.676Z,97992.98
2023-07-25T01:58:10.853Z,97997.41
2023-07-25T01:58:44.067Z,98002.80
2023-07-25T01:59:17.874Z,98004.23
2023-07-25T01:59:53.029Z,98009.52
2023-07-25T02:00:26.288Z,98013.36
2023-07-25T02:01:00.675Z,98012.64
2023-07-25T02:01:34.842Z,98014.55
2023-07-25T02:02:08.459Z,98013.55
2023-07-25T02:02:41.664Z,98009.56
2023-07-25T02:03:19.561Z,98008.18
2023-07-25T02:03:52.876Z,98010.84
2023-07-25T02:04:26.200Z,98005.46
2023-07-25T02:04:59.524Z,97998.40
2023-07-25T02:05:32.740Z,97993.18
2023-07-25T02:06:05.988Z,97991.42
2023-07-25T02:06:39.264Z,97988.51
2023-07-25T02:07:12.488Z,97984.04
2023-07-25T02:07:45.547Z,97981.05
2023-07-25T02:08:18.762Z,97980.67
2023-07-25T02:08:51.967Z,97982.44
2023-07-25T02:09:25.489Z,97983.08
2023-07-25T02:09:58.804Z,97983.45
2023-07-25T02:10:33.508Z,97983.02
2023-07-25T02:11:06.673Z,97984.98
2023-07-25T02:11:39.846Z,97983.08
2023-07-25T02:12:13.004Z,97981.85
2023-07-25T02:12:46.230Z,97983.23
2023-07-25T02:13:19.575Z,97984.86
2023-07-25T02:13:52.823Z,97984.75
2023-07-25T02:14:26.032Z,97988.91
2023-07-25T02:14:59.211Z,97987.58
2023-07-25T02:15:32.323Z,97985.40
2023-07-25T02:16:05.833Z,97983.83
2023-07-25T02:16:41.254Z,97983.13
2023-07-25T02:17:14.405Z,97984.67
2023-07-25T02:17:47.644Z,97986.38
2023-07-25T02:18:20.908Z,97979.30
2023-07-25T02:18:54.219Z,97974.49
2023-07-25T02:19:27.574Z,97975.94
2023-07-25T02:20:00.725Z,97976.05
2023-07-25T02:20:34.469Z,97974.88
2023-07-25T02:21:07.630Z,97971.83
2023-07-25T02:21:40.703Z,97971.20
2023-07-25T02:22:13.832Z,97971.76
2023-07-25T02:22:46.936Z,97970.73
2023-07-25T02:23:20.054Z,97970.48
2023-07-25T02:23:53.207Z,97968.51
2023-07-25T02:24:26.440Z,97967.13
2023-07-25T02:24:59.605Z,97967.06
2023-07-25T02:25:33.380Z,97966.11
2023-07-25T02:26:06.814Z,97967.81
2023-07-25T02:26:40.029Z,97968.67
2023-07-25T02:27:13.177Z,97964.77
2023-07-25T02:27:46.215Z,97966.80
2023-07-25T02:28:19.437Z,97962.96
2023-07-25T02:28:52.886Z,97959.98
2023-07-25T02:29:25.986Z,97961.05
2023-07-25T02:29:59.075Z,97960.77
2023-07-25T02:30:32.219Z,97952.10
2023-07-25T02:31:05.355Z,97953.53
2023-07-25T02:31:38.615Z,97951.50
2023-07-25T02:32:11.731Z,97952.34
2023-07-25T02:32:44.930Z,97952.11
2023-07-25T02:33:18.251Z,97955.05
2023-07-25T02:33:51.535Z,97955.69
2023-07-25T02:34:24.707Z,97957.02
2023-07-25T02:34:57.907Z,97958.09
2023-07-25T02:35:31.123Z,97960.76
2023-07-25T02:36:04.440Z,97957.45
2023-07-25T02:36:37.558Z,97955.39
2023-07-25T02:37:10.832Z,97955.02
2023-07-25T02:37:44.075Z,97947.94
2023-07-25T02:38:17.517Z,97947.77
2023-07-25T02:38:52.248Z,97946.08
2023-07-25T02:39:25.488Z,97945.10
2023-07-25T02:39:58.598Z,97945.64
2023-07-25T02:40:31.893Z,97947.39
2023-07-25T02:41:05.001Z,97949.46
2023-07-25T02:41:38.216Z,97951.53
2023-07-25T02:42:11.497Z,97949.63
2023-07-25T02:42:44.745Z,97949.89
2023-07-25T02:43:17.919Z,97951.54
2023-07-25T02:43:51.576Z,97951.86
2023-07-25T02:44:24.850Z,97954.79
2023-07-25T02:44:57.933Z,97956.60
2023-07-25T02:45:31.034Z,97959.32
2023-07-25T02:46:04.344Z,97958.58
2023-07-25T02:46:37.416Z,97957.08
2023-07-25T02:47:10.582Z,97960.02
2023-07-25T02:47:43.821Z,97956.60
2023-07-25T02:48:17.597Z,97956.92
2023-07-25T02:48:50.710Z,97954.46
2023-07-25T02:49:23.908Z,97956.60
2023-07-25T02:49:57.063Z,97954.79
2023-07-25T02:50:30.300Z,97951.83
2023-07-25T02:51:03.539Z,97951.61
2023-07-25T02:51:36.636Z,97953.96
2023-07-25T02:52:10.102Z,97955.34
2023-07-25T02:52:43.629Z,97954.23
2023-07-25T02:53:16.739Z,97953.05
2023-07-25T02:53:49.948Z,97956.30
2023-07-25T02:54:23.035Z,97955.23
2023-07-25T02:54:56.146Z,97957.26
2023-07-25T02:55:30.918Z,97956.89
2023-07-25T02:56:04.331Z,97954.06
2023-07-25T02:56:37.499Z,97956.79
2023-07-25T02:57:10.824Z,97957.73
2023-07-25T02:57:43.988Z,97956.89
2023-07-25T02:58:17.224Z,97954.81
2023-07-25T02:58:50.449Z,97953.38
2023-07-25T02:59:23.608Z,97953.11
2023-07-25T02:59:56.828Z,97954.34
2023-07-25T03:00:30.101Z,97961.08
2023-07-25T03:01:04.416Z,97965.38
2023-07-25T03:01:37.692Z,97969.86
2023-07-25T03:02:11.924Z,97970.17
2023-07-25T03:02:45.193Z,97971.83
2023-07-25T03:03:18.678Z,97970.92
2023-07-25T03:03:51.870Z,97974.02
2023-07-25T03:04:25.010Z,97973.25
2023-07-25T03:04:58.168Z,97970.52
2023-07-25T03:05:31.336Z,97969.05
2023-07-25T03:06:04.534Z,97968.25
2023-07-25T03:06:37.621Z,97970.64
2023-07-25T03:07:10.829Z,97969.30
2023-07-25T03:07:44.936Z,97975.59
2023-07-25T03:08:18.631Z,97975.16
2023-07-25T03:08:51.792Z,97972.45
2023-07-25T03:09:24.953Z,97975.86
2023-07-25T03:09:58.043Z,97976.77
2023-07-25T03:10:31.456Z,97980.27
2023-07-25T03:11:04.712Z,97978.25
2023-07-25T03:11:38.097Z,97979.38
2023-07-25T03:12:11.284Z,97980.45
2023-07-25T03:12:44.426Z,97976.66
2023-07-25T03:13:17.598Z,97971.52
2023-07-25T03:13:50.722Z,97972.29
2023-07-25T03:14:23.856Z,97970.05
2023-07-25T03:14:56.984Z,97972.55
2023-07-25T03:15:30.048Z,97965.67
2023-07-25T03:16:03.364Z,97965.89
2023-07-25T03:16:36.586Z,97964.24
2023-07-25T03:17:09.747Z,97959.70
2023-07-25T03:17:44.814Z,97961.88
2023-07-25T03:18:19.937Z,97963.79
2023-07-25T03:18:53.076Z,97965.92
2023-07-25T03:19:26.175Z,97969.92
2023-07-25T03:19:59.460Z,97970.89
2023-07-25T03:20:32.717Z,97972.96
2023-07-25T03:21:05.946Z,97975.42
2023-07-25T03:21:39.093Z,97977.06
2023-07-25T03:22:12.320Z,97979.98
2023-07-25T03:22:45.623Z,97980.58
2023-07-25T03:23:18.822Z,97981.70
2023-07-25T03:23:51.977Z,97979.34
2023-07-25T03:24:25.122Z,97984.13
2023-07-25T03:24:58.332Z,97979.59
2023-07-25T03:25:31.917Z,97977.51
2023-07-25T03:26:05.091Z,97973.84
2023-07-25T03:26:38.320Z,97973.89
2023-07-25T03:27:11.601Z,97969.78
2023-07-25T03:27:44.889Z,97968.30
2023-07-25T03:28:18.149Z,97967.81
2023-07-25T03:28:51.359Z,97972.82
2023-07-25T03:29:24.643Z,97968.45
2023-07-25T03:29:57.941Z,97970.91
2023-07-25T03:30:31.155Z,97969.63
2023-07-25T03:31:06.008Z,97965.36
2023-07-25T03:31:39.139Z,97967.53
2023-07-25T03:32:12.458Z,97967.95
2023-07-25T03:32:45.549Z,97967.73
2023-07-25T03:33:18.801Z,97965.36
2023-07-25T03:33:52.038Z,97965.30
2023-07-25T03:34:25.580Z,97963.33
2023-07-25T03:34:58.783Z,97961.45
2023-07-25T03:35:32.009Z,97958.52
2023-07-25T03:36:06.644Z,97960.05
2023-07-25T03:36:39.989Z,97958.63
2023-07-25T03:37:13.197Z,97960.27
2023-07-25T03:37:46.411Z,97961.80
2023-07-25T03:38:19.634Z,97962.06
2023-07-25T03:38:52.861Z,97963.66
2023-07-25T03:39:26.191Z,97963.19
2023-07-25T03:39:59.334Z,97961.15
2023-07-25T03:40:32.504Z,97959.79
2023-07-25T03:41:05.813Z,97957.98
2023-07-25T03:41:39.028Z,97961.04
2023-07-25T03:42:12.280Z,97956.30
2023-07-25T03:42:45.445Z,97953.75
2023-07-25T03:43:18.699Z,97949.80
2023-07-25T03:43:52.313Z,97950.66
2023-07-25T03:44:25.586Z,97954.02
2023-07-25T03:44:58.744Z,97955.23
2023-07-25T03:45:32.111Z,97955.88
2023-07-25T03:46:05.403Z,97955.83
2023-07-25T03:46:38.653Z,97952.58
2023-07-25T03:47:11.927Z,97950.80
2023-07-25T03:47:45.131Z,97951.70
2023-07-25T03:48:18.597Z,97950.25
2023-07-25T03:48:51.798Z,97949.25
2023-07-25T03:49:25.160Z,97947.59
2023-07-25T03:49:58.376Z,97945.66
2023-07-25T03:50:32.176Z,97945.40
2023-07-25T03:51:05.261Z,97946.41
2023-07-25T03:51:38.826Z,97943.75
2023-07-25T03:52:12.060Z,97948.33
2023-07-25T03:52:45.746Z,97949.55
2023-07-25T03:53:19.713Z,97949.35
2023-07-25T03:53:52.849Z,97947.27
2023-07-25T03:54:26.848Z,97950.35
2023-07-25T03:55:00.034Z,97946.90
2023-07-25T03:55:33.624Z,97950.52
2023-07-25T03:56:06.729Z,97950.73
2023-07-25T03:56:39.996Z,97951.21
2023-07-25T03:57:13.215Z,97949.72
2023-07-25T03:57:46.373Z,97950.09
2023-07-25T03:58:19.573Z,97950.99
2023-07-25T03:58:52.754Z,97946.46
2023-07-25T03:59:25.957Z,97950.18
2023-07-25T03:59:59.041Z,97950.23
2023-07-25T04:00:32.135Z,97949.67
2023-07-25T04:01:05.289Z,97947.66
2023-07-25T04:01:38.387Z,97954.57
2023-07-25T04:02:11.915Z,97953.45
2023-07-25T04:02:45.853Z,97953.13
2023-07-25T04:03:20.406Z,97954.73
2023-07-25T04:03:53.949Z,97952.54
2023-07-25T04:04:27.417Z,97948.01
2023-07-25T04:05:00.809Z,97946.57
2023-07-25T04:05:34.042Z,97944.06
2023-07-25T04:06:07.226Z,97945.02
2023-07-25T04:06:40.468Z,97948.96
2023-07-25T04:07:13.712Z,97945.60
2023-07-25T04:07:47.035Z,97948.02
2023-07-25T04:08:20.371Z,97947.60
2023-07-25T04:08:53.604Z,97950.75
2023-07-25T04:09:26.820Z,97949.73
2023-07-25T04:09:59.984Z,97950.74
2023-07-25T04:10:33.228Z,97949.02
2023-07-25T04:11:06.420Z,97954.23
2023-07-25T04:11:39.502Z,97953.21
2023-07-25T04:12:12.761Z,97957.42
2023-07-25T04:12:46.477Z,97955.12
2023-07-25T04:13:19.708Z,97953.34
2023-07-25T04:13:52.999Z,97955.21
2023-07-25T04:14:26.154Z,97951.42
2023-07-25T04:14:59.777Z,97949.83
2023-07-25T04:15:32.955Z,97950.95
2023-07-25T04:16:06.926Z,97946.79
2023-07-25T04:16:40.240Z,97944.65
2023-07-25T04:17:13.458Z,97947.21
2023-07-25T04:17:46.773Z,97949.96
2023-07-25T04:18:20.083Z,97948.23
2023-07-25T04:18:53.191Z,97946.86
2023-07-25T04:19:26.312Z,97945.30
2023-07-25T04:19:59.435Z,97944.55
2023-07-25T04:20:32.667Z,97941.25
2023-07-25T04:21:05.836Z,97942.69
2023-07-25T04:21:39.157Z,97942.38
2023-07-25T04:22:12.869Z,97942.69
2023-07-25T04:22:46.047Z,97939.86
2023-07-25T04:23:19.266Z,97940.11
2023-07-25T04:23:52.524Z,97942.65
2023-07-25T04:24:25.804Z,97941.48
2023-07-25T04:24:59.238Z,97939.71
2023-07-25T04:25:32.414Z,97940.12
2023-07-25T04:26:05.517Z,97940.33
2023-07-25T04:26:38.698Z,97938.19
2023-07-25T04:27:11.919Z,97935.16
2023-07-25T04:27:45.927Z,97936.23
2023-07-25T04:28:19.169Z,97936.39
2023-07-25T04:28:52.335Z,97935.09
2023-07-25T04:29:25.630Z,97937.70
2023-07-25T04:29:58.829Z,97941.05
2023-07-25T04:30:32.063Z,97940.77
2023-07-25T04:31:05.312Z,97942.84
2023-07-25T04:31:38.446Z,97941.11
2023-07-25T04:32:11.511Z,97939.63
2023-07-25T04:32:44.656Z,97937.80
2023-07-25T04:33:17.957Z,97940.52
2023-07-25T04:33:51.556Z,97938.44
2023-07-25T04:34:25.191Z,97940.12
2023-07-25T04:34:59.680Z,97939.27
2023-07-25T04:35:33.474Z,97938.40
2023-07-25T04:36:07.735Z,97938.28
2023-07-25T04:36:41.062Z,97936.61
2023-07-25T04:37:14.273Z,97937.69
2023-07-25T04:37:47.518Z,97935.64
2023-07-25T04:38:20.851Z,97936.48
2023-07-25T04:38:54.168Z,97935.58
2023-07-25T04:39:27.353Z,97936.48
2023-07-25T04:40:00.489Z,97935.20
2023-07-25T04:40:33.948Z,97934.70
2023-07-25T04:41:07.331Z,97935.16
2023-07-25T04:41:40.552Z,97928.27
2023-07-25T04:42:13.762Z,97931.30
2023-07-25T04:42:46.970Z,97929.71
2023-07-25T04:43:21.717Z,97927.78
2023-07-25T04:43:54.962Z,97926.41
2023-07-25T04:44:28.139Z,97924.48
2023-07-25T04:45:01.297Z,97925.70
2023-07-25T04:45:34.529Z,97922.95
2023-07-25T04:46:07.799Z,97922.84
2023-07-25T04:46:40.970Z,97921.55
2023-07-25T04:47:14.217Z,97923.75
2023-07-25T04:47:47.449Z,97921.61
2023-07-25T04:48:20.628Z,97923.39
2023-07-25T04:48:53.770Z,97923.95
2023-07-25T04:49:27.008Z,97922.48
2023-07-25T04:50:00.468Z,97919.43
2023-07-25T04:50:33.948Z,97920.71
2023-07-25T04:51:07.166Z,97921.62
2023-07-25T04:51:41.497Z,97923.83
2023-07-25T04:52:14.717Z,97923.80
2023-07-25T04:52:48.109Z,97925.45
2023-07-25T04:53:21.527Z,97928.14
2023-07-25T04:53:54.859Z,97927.33
2023-07-25T04:54:28.127Z,97923.52
2023-07-25T04:55:01.210Z,97925.63
2023-07-25T04:55:34.475Z,97924.66
2023-07-25T04:56:07.561Z,97925.06
2023-07-25T04:56:42.527Z,97924.45
2023-07-25T04:57:17.510Z,97924.18
2023-07-25T04:57:52.578Z,97924.77
2023-07-25T04:58:25.741Z,97922.58
2023-07-25T04:58:59.114Z,97925.55
2023-07-25T04:59:33.427Z,97927.12
2023-07-25T05:00:07.739Z,97927.43
2023-07-25T05:00:41.226Z,97929.67
2023-07-25T05:01:14.601Z,97928.06
2023-07-25T05:01:47.804Z,97931.09
2023-07-25T05:02:21.840Z,97931.88
2023-07-25T05:02:55.143Z,97932.30
2023-07-25T05:03:28.641Z,97932.09
2023-07-25T05:04:02.242Z,97934.48
2023-07-25T05:04:35.739Z,97932.07
2023-07-25T05:05:09.492Z,97934.73
2023-07-25T05:05:42.795Z,97935.77
2023-07-25T05:06:16.019Z,97934.91
2023-07-25T05:06:50.253Z,97931.76
2023-07-25T05:07:23.527Z,97931.05
2023-07-25T05:07:56.704Z,97932.92
2023-07-25T05:08:29.951Z,97932.02
2023-07-25T05:09:03.763Z,97934.64
2023-07-25T05:09:37.023Z,97934.57
2023-07-25T05:10:10.544Z,97935.85
2023-07-25T05:10:43.818Z,97936.58
2023-07-25T05:11:17.080Z,97932.94
2023-07-25T05:11:52.634Z,97931.11
2023-07-25T05:12:25.865Z,97929.23
2023-07-25T05:12:59.082Z,97929.98
2023-07-25T05:13:32.310Z,97931.63
2023-07-25T05:14:05.821Z,97927.83
2023-07-25T05:14:39.185Z,97929.77
2023-07-25T05:15:12.475Z,97930.73
2023-07-25T05:15:45.710Z,97930.30
2023-07-25T05:16:20.444Z,97928.65
2023-07-25T05:16:53.668Z,97928.71
2023-07-25T05:17:27.029Z,97926.42
2023-07-25T05:18:00.554Z,97927.77
2023-07-25T05:18:33.910Z,97923.10
2023-07-25T05:19:07.148Z,97922.89
2023-07-25T05:19:43.165Z,97926.48
2023-07-25T05:20:16.832Z,97922.40
2023-07-25T05:20:50.094Z,97923.52
2023-07-25T05:21:23.358Z,97920.95
2023-07-25T05:21:56.517Z,97922.04
2023-07-25T05:22:29.913Z,97920.04
2023-07-25T05:23:03.174Z,97918.70
2023-07-25T05:23:36.342Z,97921.10
2023-07-25T05:24:09.649Z,97920.64
2023-07-25T05:24:42.896Z,97917.90
2023-07-25T05:25:16.202Z,97916.19
2023-07-25T05:25:49.403Z,97916.80
2023-07-25T05:26:22.549Z,97918.11
2023-07-25T05:26:57.116Z,97913.65
2023-07-25T05:27:32.340Z,97914.20
2023-07-25T05:28:05.625Z,97911.84
2023-07-25T05:28:38.842Z,97911.25
2023-07-25T05:29:12.072Z,97909.64
2023-07-25T05:29:45.415Z,97910.14
2023-07-25T05:30:18.766Z,97909.52
2023-07-25T05:30:51.982Z,97907.05
2023-07-25T05:31:25.282Z,97908.66
2023-07-25T05:31:58.627Z,97906.94
2023-07-25T05:32:31.886Z,97908.85
2023-07-25T05:33:05.200Z,97908.30
2023-07-25T05:33:38.319Z,97906.94
2023-07-25T05:34:11.497Z,97907.66
2023-07-25T05:34:44.743Z,97905.21
2023-07-25T05:35:18.246Z,97901.67
2023-07-25T05:36:00.816Z,97901.77
2023-07-25T05:36:34.266Z,97904.39
2023-07-25T05:37:07.716Z,97909.35
2023-07-25T05:37:41.093Z,97910.91
2023-07-25T05:38:14.286Z,97912.39
2023-07-25T05:38:47.480Z,97911.55
2023-07-25T05:39:20.668Z,97911.14
2023-07-25T05:39:53.809Z,97907.12
2023-07-25T05:40:27.003Z,97911.51
2023-07-25T05:41:00.252Z,97904.87
2023-07-25T05:41:34.265Z,97905.34
2023-07-25T05:42:07.885Z,97907.73
2023-07-25T05:42:41.012Z,97908.18
2023-07-25T05:43:16.532Z,97907.20
2023-07-25T05:43:49.828Z,97902.05
2023-07-25T05:44:23.017Z,97905.32
2023-07-25T05:44:56.154Z,97903.69
2023-07-25T05:45:29.379Z,97907.46
2023-07-25T05:46:02.782Z,97902.59
2023-07-25T05:46:36.435Z,97906.12
2023-07-25T05:47:09.865Z,97907.55
2023-07-25T05:47:43.056Z,97910.11
2023-07-25T05:48:16.231Z,97909.84
2023-07-25T05:48:49.603Z,97907.84
2023-07-25T05:49:22.716Z,97912.95
2023-07-25T05:49:57.030Z,97910.54
2023-07-25T05:50:30.189Z,97915.13
2023-07-25T05:51:03.368Z,97914.91
2023-07-25T05:51:36.643Z,97914.06
2023-07-25T05:52:09.763Z,97919.52
2023-07-25T05:52:42.909Z,97918.30
2023-07-25T05:53:16.143Z,97919.45
2023-07-25T05:53:49.432Z,97917.10
2023-07-25T05:54:22.510Z,97920.86
2023-07-25T05:54:55.714Z,97917.80
2023-07-25T05:55:28.937Z,97920.21
2023-07-25T05:56:02.170Z,97917.91
2023-07-25T05:56:35.437Z,97922.17
2023-07-25T05:57:09.080Z,97924.06
2023-07-25T05:57:42.221Z,97924.33
2023-07-25T05:58:16.523Z,97930.86
2023-07-25T05:58:50.157Z,97930.69
2023-07-25T05:59:23.363Z,97932.91
2023-07-25T05:59:56.638Z,97937.45
2023-07-25T06:00:29.868Z,97935.90
2023-07-25T06:01:03.227Z,97935.08
2023-07-25T06:01:37.034Z,97933.52
2023-07-25T06:02:11.243Z,97934.29
2023-07-25T06:02:44.524Z,97936.20
2023-07-25T06:03:18.515Z,97936.19
2023-07-25T06:03:51.798Z,97938.64
2023-07-25T06:04:25.022Z,97937.61
2023-07-25T06:04:58.347Z,97941.21
2023-07-25T06:05:31.594Z,97940.00
2023-07-25T06:06:04.735Z,97940.21
2023-07-25T06:06:37.816Z,97937.95
2023-07-25T06:07:11.068Z,97941.95
2023-07-25T06:07:44.199Z,97941.36
2023-07-25T06:08:17.482Z,97944.11
2023-07-25T06:08:50.844Z,97944.98
2023-07-25T06:09:24.178Z,97945.45
2023-07-25T06:09:57.416Z,97943.43
2023-07-25T06:10:30.820Z,97947.01
2023-07-25T06:11:04.068Z,97945.48
2023-07-25T06:11:37.715Z,97941.67
2023-07-25T06:12:11.342Z,97945.30
2023-07-25T06:12:45.782Z,97944.30
2023-07-25T06:13:19.181Z,97944.18
2023-07-25T06:13:54.226Z,97942.20
2023-07-25T06:14:27.920Z,97944.34
2023-07-25T06:15:01.163Z,97943.38
2023-07-25T06:15:37.834Z,97940.20
2023-07-25T06:16:10.998Z,97936.55
2023-07-25T06:16:44.384Z,97940.36
2023-07-25T06:17:18.084Z,97941.52
2023-07-25T06:17:51.946Z,97943.22
2023-07-25T06:18:25.167Z,97946.02
2023-07-25T06:18:58.305Z,97947.20
2023-07-25T06:19:31.567Z,97953.65
2023-07-25T06:20:05.057Z,97950.65
2023-07-25T06:20:38.213Z,97955.07
2023-07-25T06:21:11.976Z,97953.94
2023-07-25T06:21:45.190Z,97960.58
2023-07-25T06:22:18.509Z,97960.19
2023-07-25T06:22:51.703Z,97959.79
2023-07-25T06:23:24.801Z,97958.75
2023-07-25T06:23:58.049Z,97962.70
2023-07-25T06:24:31.438Z,97966.75
2023-07-25T06:25:06.088Z,97961.34
2023-07-25T06:25:39.366Z,97964.50
2023-07-25T06:26:12.548Z,97964.83
2023-07-25T06:26:46.025Z,97963.58
2023-07-25T06:27:19.545Z,97961.06
2023-07-25T06:27:52.887Z,97958.92
2023-07-25T06:28:26.007Z,97961.50
2023-07-25T06:28:59.687Z,97964.33
2023-07-25T06:29:33.239Z,97964.90
2023-07-25T06:30:07.401Z,97964.48
2023-07-25T06:30:40.753Z,97965.63
2023-07-25T06:31:14.151Z,97969.75
2023-07-25T06:31:47.556Z,97968.92
2023-07-25T06:32:20.857Z,97970.92
2023-07-25T06:34:59.841Z,97959.44
2023-07-25T06:35:33.109Z,97963.29
2023-07-25T06:36:06.422Z,97956.90